sensor_id;sensor_type;location;lat;lon;timestamp;temperature;humidity
11812;DHT22;5963;50.184;9.162;2023-04-03T00:00:22;3.50;99.90
11812;DHT22;5963;50.184;9.162;2023-04-03T00:02:51;3.60;99.90
11812;DHT22;5963;50.184;9.162;2023-04-03T00:05:21;3.70;99.90
11812;DHT22;5963;50.184;9.162;2023-04-03T00:07:51;3.70;99.90
11812;DHT22;5963;50.184;9.162;2023-04-03T00:10:21;3.70;99.90
11812;DHT22;5963;50.184;9.162;2023-04-03T00:12:51;3.70;99.90
11812;DHT22;5963;50.184;9.162;2023-04-03T00:15:22;3.80;99.90
11812;DHT22;5963;50.184;9.162;2023-04-03T00:17:52;3.70;99.90
11812;DHT22;5963;50.184;9.162;2023-04-03T00:20:22;3.70;99.90
11812;DHT22;5963;50.184;9.162;2023-04-03T00:22:52;3.70;99.90
11812;DHT22;5963;50.184;9.162;2023-04-03T00:25:21;3.70;99.90
11812;DHT22;5963;50.184;9.162;2023-04-03T00:27:52;3.70;99.90
11812;DHT22;5963;50.184;9.162;2023-04-03T00:30:25;3.60;99.90
11812;DHT22;5963;50.184;9.162;2023-04-03T00:32:56;3.50;99.90
11812;DHT22;5963;50.184;9.162;2023-04-03T00:35:26;3.50;99.90
11812;DHT22;5963;50.184;9.162;2023-04-03T00:37:57;3.50;99.90
11812;DHT22;5963;50.184;9.162;2023-04-03T00:40:32;3.40;99.90
11812;DHT22;5963;50.184;9.162;2023-04-03T00:43:05;3.30;99.90
11812;DHT22;5963;50.184;9.162;2023-04-03T00:45:42;3.40;99.90
11812;DHT22;5963;50.184;9.162;2023-04-03T00:48:17;3.40;99.90
11812;DHT22;5963;50.184;9.162;2023-04-03T00:50:48;3.30;99.90
11812;DHT22;5963;50.184;9.162;2023-04-03T00:53:22;3.40;99.90
11812;DHT22;5963;50.184;9.162;2023-04-03T00:55:53;3.40;99.90
11812;DHT22;5963;50.184;9.162;2023-04-03T00:58:28;3.30;99.90
11812;DHT22;5963;50.184;9.162;2023-04-03T01:01:06;3.30;99.90
11812;DHT22;5963;50.184;9.162;2023-04-03T01:03:37;3.30;99.90
11812;DHT22;5963;50.184;9.162;2023-04-03T01:06:08;3.30;99.90
11812;DHT22;5963;50.184;9.162;2023-04-03T01:08:38;3.40;99.90
11812;DHT22;5963;50.184;9.162;2023-04-03T01:11:08;3.40;99.90
11812;DHT22;5963;50.184;9.162;2023-04-03T01:13:37;3.40;99.90
11812;DHT22;5963;50.184;9.162;2023-04-03T01:16:10;3.40;99.90
11812;DHT22;5963;50.184;9.162;2023-04-03T01:18:41;3.40;99.90
11812;DHT22;5963;50.184;9.162;2023-04-03T01:21:40;3.40;99.90
11812;DHT22;5963;50.184;9.162;2023-04-03T01:24:22;3.50;99.90
11812;DHT22;5963;50.184;9.162;2023-04-03T01:26:55;3.50;99.90
11812;DHT22;5963;50.184;9.162;2023-04-03T01:29:25;3.50;99.90
11812;DHT22;5963;50.184;9.162;2023-04-03T01:31:58;3.50;99.90
11812;DHT22;5963;50.184;9.162;2023-04-03T01:34:29;3.40;99.90
11812;DHT22;5963;50.184;9.162;2023-04-03T01:36:59;3.50;99.90
11812;DHT22;5963;50.184;9.162;2023-04-03T01:39:28;3.50;99.90
11812;DHT22;5963;50.184;9.162;2023-04-03T01:41:59;3.50;99.90
11812;DHT22;5963;50.184;9.162;2023-04-03T01:44:28;3.30;99.90
11812;DHT22;5963;50.184;9.162;2023-04-03T01:47:00;3.30;99.90
11812;DHT22;5963;50.184;9.162;2023-04-03T01:49:30;3.20;99.90
11812;DHT22;5963;50.184;9.162;2023-04-03T01:52:00;3.20;99.90
11812;DHT22;5963;50.184;9.162;2023-04-03T01:54:30;3.20;99.90
11812;DHT22;5963;50.184;9.162;2023-04-03T01:57:02;3.10;99.90
11812;DHT22;5963;50.184;9.162;2023-04-03T01:59:37;3.00;99.90
11812;DHT22;5963;50.184;9.162;2023-04-03T02:02:08;3.00;99.90
11812;DHT22;5963;50.184;9.162;2023-04-03T02:04:40;2.90;99.90
11812;DHT22;5963;50.184;9.162;2023-04-03T02:07:10;2.90;99.90
11812;DHT22;5963;50.184;9.162;2023-04-03T02:09:40;2.90;99.90
11812;DHT22;5963;50.184;9.162;2023-04-03T02:12:10;2.90;99.90
11812;DHT22;5963;50.184;9.162;2023-04-03T02:14:40;3.10;99.90
11812;DHT22;5963;50.184;9.162;2023-04-03T02:17:11;3.20;99.90
11812;DHT22;5963;50.184;9.162;2023-04-03T02:19:41;3.10;99.90
11812;DHT22;5963;50.184;9.162;2023-04-03T02:22:11;3.10;99.90
11812;DHT22;5963;50.184;9.162;2023-04-03T02:24:40;3.10;99.90
11812;DHT22;5963;50.184;9.162;2023-04-03T02:27:10;3.10;99.90
11812;DHT22;5963;50.184;9.162;2023-04-03T02:29:40;3.10;99.90
11812;DHT22;5963;50.184;9.162;2023-04-03T02:32:11;3.10;99.90
11812;DHT22;5963;50.184;9.162;2023-04-03T02:34:41;3.10;99.90
11812;DHT22;5963;50.184;9.162;2023-04-03T02:37:10;3.30;99.90
11812;DHT22;5963;50.184;9.162;2023-04-03T02:39:40;3.20;99.90
11812;DHT22;5963;50.184;9.162;2023-04-03T02:42:10;3.20;99.90
11812;DHT22;5963;50.184;9.162;2023-04-03T02:44:40;3.30;99.90
11812;DHT22;5963;50.184;9.162;2023-04-03T02:47:11;3.40;99.90
11812;DHT22;5963;50.184;9.162;2023-04-03T02:49:41;3.40;99.90
11812;DHT22;5963;50.184;9.162;2023-04-03T02:52:11;3.60;99.90
11812;DHT22;5963;50.184;9.162;2023-04-03T02:54:41;3.70;99.90
11812;DHT22;5963;50.184;9.162;2023-04-03T02:57:11;3.60;99.90
11812;DHT22;5963;50.184;9.162;2023-04-03T02:59:41;3.70;99.90
11812;DHT22;5963;50.184;9.162;2023-04-03T03:02:12;3.70;99.90
11812;DHT22;5963;50.184;9.162;2023-04-03T03:04:42;3.70;99.90
11812;DHT22;5963;50.184;9.162;2023-04-03T03:07:12;3.60;99.90
11812;DHT22;5963;50.184;9.162;2023-04-03T03:09:42;3.60;99.90
11812;DHT22;5963;50.184;9.162;2023-04-03T03:12:12;3.50;99.90
11812;DHT22;5963;50.184;9.162;2023-04-03T03:14:42;3.40;99.90
11812;DHT22;5963;50.184;9.162;2023-04-03T03:17:13;3.40;99.90
11812;DHT22;5963;50.184;9.162;2023-04-03T03:19:43;3.40;99.90
11812;DHT22;5963;50.184;9.162;2023-04-03T03:22:13;3.40;99.90
11812;DHT22;5963;50.184;9.162;2023-04-03T03:24:43;3.30;99.90
11812;DHT22;5963;50.184;9.162;2023-04-03T03:27:13;3.30;99.90
11812;DHT22;5963;50.184;9.162;2023-04-03T03:29:44;3.30;99.90
11812;DHT22;5963;50.184;9.162;2023-04-03T03:32:15;3.30;99.90
11812;DHT22;5963;50.184;9.162;2023-04-03T03:34:45;3.30;99.90
11812;DHT22;5963;50.184;9.162;2023-04-03T03:37:15;3.30;99.90
11812;DHT22;5963;50.184;9.162;2023-04-03T03:39:45;3.20;99.90
11812;DHT22;5963;50.184;9.162;2023-04-03T03:42:15;3.10;99.90
11812;DHT22;5963;50.184;9.162;2023-04-03T03:44:44;3.00;99.90
11812;DHT22;5963;50.184;9.162;2023-04-03T03:47:16;2.90;99.90
11812;DHT22;5963;50.184;9.162;2023-04-03T03:49:45;2.90;99.90
11812;DHT22;5963;50.184;9.162;2023-04-03T03:52:15;2.80;99.90
11812;DHT22;5963;50.184;9.162;2023-04-03T03:54:45;2.80;99.90
11812;DHT22;5963;50.184;9.162;2023-04-03T03:57:15;2.70;99.90
11812;DHT22;5963;50.184;9.162;2023-04-03T03:59:45;2.60;99.90
11812;DHT22;5963;50.184;9.162;2023-04-03T04:02:17;2.60;99.90
11812;DHT22;5963;50.184;9.162;2023-04-03T04:04:48;2.50;99.90
11812;DHT22;5963;50.184;9.162;2023-04-03T04:07:18;2.50;99.90
11812;DHT22;5963;50.184;9.162;2023-04-03T04:09:48;2.50;99.90
11812;DHT22;5963;50.184;9.162;2023-04-03T04:12:18;2.40;99.90
11812;DHT22;5963;50.184;9.162;2023-04-03T04:14:48;2.40;99.90
11812;DHT22;5963;50.184;9.162;2023-04-03T04:17:19;2.30;99.90
11812;DHT22;5963;50.184;9.162;2023-04-03T04:19:49;2.30;99.90
11812;DHT22;5963;50.184;9.162;2023-04-03T04:22:19;2.30;99.90
11812;DHT22;5963;50.184;9.162;2023-04-03T04:24:47;2.20;99.90
11812;DHT22;5963;50.184;9.162;2023-04-03T04:27:17;2.10;99.90
11812;DHT22;5963;50.184;9.162;2023-04-03T04:29:46;2.10;99.90
11812;DHT22;5963;50.184;9.162;2023-04-03T04:32:16;1.90;99.90
11812;DHT22;5963;50.184;9.162;2023-04-03T04:34:47;1.80;99.90
11812;DHT22;5963;50.184;9.162;2023-04-03T04:37:17;1.80;99.90
11812;DHT22;5963;50.184;9.162;2023-04-03T04:39:47;1.70;99.90
11812;DHT22;5963;50.184;9.162;2023-04-03T04:42:17;1.60;99.90
11812;DHT22;5963;50.184;9.162;2023-04-03T04:44:47;1.50;99.90
11812;DHT22;5963;50.184;9.162;2023-04-03T04:47:17;1.40;99.90
11812;DHT22;5963;50.184;9.162;2023-04-03T04:49:48;1.40;99.90
11812;DHT22;5963;50.184;9.162;2023-04-03T04:52:18;1.30;99.90
11812;DHT22;5963;50.184;9.162;2023-04-03T04:54:48;1.20;99.90
11812;DHT22;5963;50.184;9.162;2023-04-03T04:57:18;1.30;99.90
11812;DHT22;5963;50.184;9.162;2023-04-03T04:59:51;1.20;99.90
11812;DHT22;5963;50.184;9.162;2023-04-03T05:02:21;1.20;99.90
11812;DHT22;5963;50.184;9.162;2023-04-03T05:04:52;1.20;99.90
11812;DHT22;5963;50.184;9.162;2023-04-03T05:07:22;1.20;99.90
11812;DHT22;5963;50.184;9.162;2023-04-03T05:09:52;1.10;99.90
11812;DHT22;5963;50.184;9.162;2023-04-03T05:12:21;1.10;99.90
11812;DHT22;5963;50.184;9.162;2023-04-03T05:14:51;1.10;99.90
11812;DHT22;5963;50.184;9.162;2023-04-03T05:17:21;1.10;99.90
11812;DHT22;5963;50.184;9.162;2023-04-03T05:19:52;1.10;99.90
11812;DHT22;5963;50.184;9.162;2023-04-03T05:22:22;1.00;99.90
11812;DHT22;5963;50.184;9.162;2023-04-03T05:24:52;1.10;99.90
11812;DHT22;5963;50.184;9.162;2023-04-03T05:27:22;1.00;99.90
11812;DHT22;5963;50.184;9.162;2023-04-03T05:29:52;1.00;99.90
11812;DHT22;5963;50.184;9.162;2023-04-03T05:32:22;1.00;99.90
11812;DHT22;5963;50.184;9.162;2023-04-03T05:34:54;1.00;99.90
11812;DHT22;5963;50.184;9.162;2023-04-03T05:37:23;1.10;99.90
11812;DHT22;5963;50.184;9.162;2023-04-03T05:39:53;1.20;99.90
11812;DHT22;5963;50.184;9.162;2023-04-03T05:42:23;1.20;99.90
11812;DHT22;5963;50.184;9.162;2023-04-03T05:44:53;1.10;99.90
11812;DHT22;5963;50.184;9.162;2023-04-03T05:47:23;1.10;99.90
11812;DHT22;5963;50.184;9.162;2023-04-03T05:49:54;1.20;99.90
11812;DHT22;5963;50.184;9.162;2023-04-03T05:52:26;1.20;99.90
11812;DHT22;5963;50.184;9.162;2023-04-03T05:54:56;1.30;99.90
11812;DHT22;5963;50.184;9.162;2023-04-03T05:57:26;1.30;99.90
11812;DHT22;5963;50.184;9.162;2023-04-03T05:59:56;1.30;99.90
11812;DHT22;5963;50.184;9.162;2023-04-03T06:02:26;1.30;99.90
11812;DHT22;5963;50.184;9.162;2023-04-03T06:04:57;1.40;99.90
11812;DHT22;5963;50.184;9.162;2023-04-03T06:07:28;1.60;99.90
11812;DHT22;5963;50.184;9.162;2023-04-03T06:09:59;2.30;99.90
11812;DHT22;5963;50.184;9.162;2023-04-03T06:12:30;3.30;99.90
11812;DHT22;5963;50.184;9.162;2023-04-03T06:14:59;3.50;99.90
11812;DHT22;5963;50.184;9.162;2023-04-03T06:17:29;3.80;99.90
11812;DHT22;5963;50.184;9.162;2023-04-03T06:20:01;4.20;99.90
11812;DHT22;5963;50.184;9.162;2023-04-03T06:22:32;4.30;99.90
11812;DHT22;5963;50.184;9.162;2023-04-03T06:25:01;4.70;99.90
11812;DHT22;5963;50.184;9.162;2023-04-03T06:27:31;4.10;99.90
11812;DHT22;5963;50.184;9.162;2023-04-03T06:30:01;4.30;99.90
11812;DHT22;5963;50.184;9.162;2023-04-03T06:32:31;3.90;99.90
11812;DHT22;5963;50.184;9.162;2023-04-03T06:35:02;3.80;99.90
11812;DHT22;5963;50.184;9.162;2023-04-03T06:37:32;3.60;99.90
11812;DHT22;5963;50.184;9.162;2023-04-03T06:40:02;3.50;99.90
11812;DHT22;5963;50.184;9.162;2023-04-03T06:42:32;3.60;99.90
11812;DHT22;5963;50.184;9.162;2023-04-03T06:45:02;3.70;99.90
11812;DHT22;5963;50.184;9.162;2023-04-03T06:47:31;3.50;99.90
11812;DHT22;5963;50.184;9.162;2023-04-03T06:50:03;3.50;99.90
11812;DHT22;5963;50.184;9.162;2023-04-03T06:52:32;3.50;99.90
11812;DHT22;5963;50.184;9.162;2023-04-03T06:55:02;3.20;99.90
11812;DHT22;5963;50.184;9.162;2023-04-03T06:57:32;3.30;99.90
11812;DHT22;5963;50.184;9.162;2023-04-03T07:00:02;3.50;99.90
11812;DHT22;5963;50.184;9.162;2023-04-03T07:02:32;3.50;99.90
11812;DHT22;5963;50.184;9.162;2023-04-03T07:05:04;3.60;99.90
11812;DHT22;5963;50.184;9.162;2023-04-03T07:07:34;3.70;99.90
11812;DHT22;5963;50.184;9.162;2023-04-03T07:10:07;3.70;99.90
11812;DHT22;5963;50.184;9.162;2023-04-03T07:12:37;3.80;99.90
11812;DHT22;5963;50.184;9.162;2023-04-03T07:15:08;3.80;99.90
11812;DHT22;5963;50.184;9.162;2023-04-03T07:17:38;3.90;99.90
11812;DHT22;5963;50.184;9.162;2023-04-03T07:20:10;4.10;99.90
11812;DHT22;5963;50.184;9.162;2023-04-03T07:22:40;4.10;99.90
11812;DHT22;5963;50.184;9.162;2023-04-03T07:25:10;4.10;99.90
11812;DHT22;5963;50.184;9.162;2023-04-03T07:27:40;4.30;99.90
11812;DHT22;5963;50.184;9.162;2023-04-03T07:30:10;4.40;99.90
11812;DHT22;5963;50.184;9.162;2023-04-03T07:32:40;4.50;99.90
11812;DHT22;5963;50.184;9.162;2023-04-03T07:35:11;4.20;99.90
11812;DHT22;5963;50.184;9.162;2023-04-03T07:37:41;4.30;99.90
11812;DHT22;5963;50.184;9.162;2023-04-03T07:40:11;4.40;99.90
11812;DHT22;5963;50.184;9.162;2023-04-03T07:42:41;4.60;99.90
11812;DHT22;5963;50.184;9.162;2023-04-03T07:45:12;4.90;99.90
11812;DHT22;5963;50.184;9.162;2023-04-03T07:47:42;5.30;99.90
11812;DHT22;5963;50.184;9.162;2023-04-03T07:50:13;4.90;99.90
11812;DHT22;5963;50.184;9.162;2023-04-03T07:52:43;5.10;99.90
11812;DHT22;5963;50.184;9.162;2023-04-03T07:55:14;5.20;99.90
11812;DHT22;5963;50.184;9.162;2023-04-03T07:57:42;5.30;99.90
11812;DHT22;5963;50.184;9.162;2023-04-03T08:00:13;5.50;99.90
11812;DHT22;5963;50.184;9.162;2023-04-03T08:02:43;5.10;99.90
11812;DHT22;5963;50.184;9.162;2023-04-03T08:05:20;5.10;99.90
11812;DHT22;5963;50.184;9.162;2023-04-03T08:07:51;5.30;99.90
11812;DHT22;5963;50.184;9.162;2023-04-03T08:10:20;5.60;99.90
11812;DHT22;5963;50.184;9.162;2023-04-03T08:12:50;5.90;99.90
11812;DHT22;5963;50.184;9.162;2023-04-03T08:15:20;6.00;99.90
11812;DHT22;5963;50.184;9.162;2023-04-03T08:17:50;5.90;99.90
11812;DHT22;5963;50.184;9.162;2023-04-03T08:20:21;5.70;99.90
11812;DHT22;5963;50.184;9.162;2023-04-03T08:22:51;5.50;99.90
11812;DHT22;5963;50.184;9.162;2023-04-03T08:25:21;5.70;99.90
11812;DHT22;5963;50.184;9.162;2023-04-03T08:27:51;5.80;99.90
11812;DHT22;5963;50.184;9.162;2023-04-03T08:30:21;5.90;99.90
11812;DHT22;5963;50.184;9.162;2023-04-03T08:32:51;6.20;99.90
11812;DHT22;5963;50.184;9.162;2023-04-03T08:35:22;6.30;99.90
11812;DHT22;5963;50.184;9.162;2023-04-03T08:37:52;6.30;99.90
11812;DHT22;5963;50.184;9.162;2023-04-03T08:40:24;5.90;99.90
11812;DHT22;5963;50.184;9.162;2023-04-03T08:43:01;6.00;99.90
11812;DHT22;5963;50.184;9.162;2023-04-03T08:45:41;5.90;99.90
11812;DHT22;5963;50.184;9.162;2023-04-03T08:48:17;5.90;99.90
11812;DHT22;5963;50.184;9.162;2023-04-03T08:50:54;6.00;99.90
11812;DHT22;5963;50.184;9.162;2023-04-03T08:53:28;6.20;99.90
11812;DHT22;5963;50.184;9.162;2023-04-03T08:56:01;6.40;99.90
11812;DHT22;5963;50.184;9.162;2023-04-03T08:58:33;6.40;99.90
11812;DHT22;5963;50.184;9.162;2023-04-03T09:01:17;6.50;99.90
11812;DHT22;5963;50.184;9.162;2023-04-03T09:03:49;6.10;99.90
11812;DHT22;5963;50.184;9.162;2023-04-03T09:06:23;6.40;99.90
11812;DHT22;5963;50.184;9.162;2023-04-03T09:09:04;6.60;99.90
11812;DHT22;5963;50.184;9.162;2023-04-03T09:11:44;6.70;99.90
11812;DHT22;5963;50.184;9.162;2023-04-03T09:14:20;6.60;99.90
11812;DHT22;5963;50.184;9.162;2023-04-03T09:16:53;6.60;99.90
11812;DHT22;5963;50.184;9.162;2023-04-03T09:19:34;6.40;99.90
11812;DHT22;5963;50.184;9.162;2023-04-03T09:22:22;6.50;99.90
11812;DHT22;5963;50.184;9.162;2023-04-03T09:24:58;6.60;99.90
11812;DHT22;5963;50.184;9.162;2023-04-03T09:27:29;6.50;99.90
11812;DHT22;5963;50.184;9.162;2023-04-03T09:30:00;6.60;99.90
11812;DHT22;5963;50.184;9.162;2023-04-03T09:32:32;6.30;99.90
11812;DHT22;5963;50.184;9.162;2023-04-03T09:35:04;6.30;99.90
11812;DHT22;5963;50.184;9.162;2023-04-03T09:37:58;6.60;99.90
11812;DHT22;5963;50.184;9.162;2023-04-03T09:40:39;6.80;99.90
11812;DHT22;5963;50.184;9.162;2023-04-03T09:43:22;6.40;99.90
11812;DHT22;5963;50.184;9.162;2023-04-03T09:45:53;6.70;99.90
11812;DHT22;5963;50.184;9.162;2023-04-03T09:48:25;6.60;99.90
11812;DHT22;5963;50.184;9.162;2023-04-03T09:51:01;6.40;99.90
11812;DHT22;5963;50.184;9.162;2023-04-03T09:53:34;6.80;99.90
11812;DHT22;5963;50.184;9.162;2023-04-03T09:56:18;6.70;99.90
11812;DHT22;5963;50.184;9.162;2023-04-03T09:58:50;6.80;99.90
11812;DHT22;5963;50.184;9.162;2023-04-03T10:01:25;7.00;99.90
11812;DHT22;5963;50.184;9.162;2023-04-03T10:04:04;6.70;99.90
11812;DHT22;5963;50.184;9.162;2023-04-03T10:06:38;7.10;99.90
11812;DHT22;5963;50.184;9.162;2023-04-03T10:09:28;6.70;99.90
11812;DHT22;5963;50.184;9.162;2023-04-03T10:12:05;6.70;99.90
11812;DHT22;5963;50.184;9.162;2023-04-03T10:14:38;6.80;99.90
11812;DHT22;5963;50.184;9.162;2023-04-03T10:17:16;7.20;99.90
11812;DHT22;5963;50.184;9.162;2023-04-03T10:19:49;7.50;99.90
11812;DHT22;5963;50.184;9.162;2023-04-03T10:22:23;7.50;99.90
11812;DHT22;5963;50.184;9.162;2023-04-03T10:25:04;7.40;99.90
11812;DHT22;5963;50.184;9.162;2023-04-03T10:27:41;7.50;99.90
11812;DHT22;5963;50.184;9.162;2023-04-03T10:30:30;7.30;99.90
11812;DHT22;5963;50.184;9.162;2023-04-03T10:33:11;7.40;99.90
11812;DHT22;5963;50.184;9.162;2023-04-03T10:35:50;7.50;99.90
11812;DHT22;5963;50.184;9.162;2023-04-03T10:38:28;7.70;99.90
11812;DHT22;5963;50.184;9.162;2023-04-03T10:41:07;7.80;99.90
11812;DHT22;5963;50.184;9.162;2023-04-03T10:43:42;7.70;99.90
11812;DHT22;5963;50.184;9.162;2023-04-03T10:46:16;7.70;99.90
11812;DHT22;5963;50.184;9.162;2023-04-03T10:51:43;7.70;99.90
11812;DHT22;5963;50.184;9.162;2023-04-03T10:54:15;8.10;99.90
11812;DHT22;5963;50.184;9.162;2023-04-03T10:56:51;8.00;99.90
11812;DHT22;5963;50.184;9.162;2023-04-03T10:59:41;8.20;99.90
11812;DHT22;5963;50.184;9.162;2023-04-03T11:02:16;8.00;99.90
11812;DHT22;5963;50.184;9.162;2023-04-03T11:04:51;8.40;99.90
11812;DHT22;5963;50.184;9.162;2023-04-03T11:07:24;8.20;99.90
11812;DHT22;5963;50.184;9.162;2023-04-03T11:09:58;8.40;99.90
11812;DHT22;5963;50.184;9.162;2023-04-03T11:12:36;8.60;99.90
11812;DHT22;5963;50.184;9.162;2023-04-03T11:15:15;8.60;99.60
11812;DHT22;5963;50.184;9.162;2023-04-03T11:17:47;8.60;99.90
11812;DHT22;5963;50.184;9.162;2023-04-03T11:20:21;8.90;99.80
11812;DHT22;5963;50.184;9.162;2023-04-03T11:23:00;9.20;99.50
11812;DHT22;5963;50.184;9.162;2023-04-03T11:25:32;9.20;99.30
11812;DHT22;5963;50.184;9.162;2023-04-03T11:28:11;8.90;98.50
11812;DHT22;5963;50.184;9.162;2023-04-03T11:30:46;8.70;98.40
11812;DHT22;5963;50.184;9.162;2023-04-03T11:33:42;9.00;98.00
11812;DHT22;5963;50.184;9.162;2023-04-03T11:36:21;8.70;97.60
11812;DHT22;5963;50.184;9.162;2023-04-03T11:38:59;8.80;96.40
11812;DHT22;5963;50.184;9.162;2023-04-03T11:41:31;9.10;96.20
11812;DHT22;5963;50.184;9.162;2023-04-03T11:44:06;9.00;96.00
11812;DHT22;5963;50.184;9.162;2023-04-03T11:46:58;8.70;96.60
11812;DHT22;5963;50.184;9.162;2023-04-03T11:49:56;8.50;96.40
11812;DHT22;5963;50.184;9.162;2023-04-03T11:52:59;8.70;96.20
11812;DHT22;5963;50.184;9.162;2023-04-03T11:55:53;8.80;96.00
11812;DHT22;5963;50.184;9.162;2023-04-03T11:58:25;9.10;95.00
11812;DHT22;5963;50.184;9.162;2023-04-03T12:01:11;8.60;95.30
11812;DHT22;5963;50.184;9.162;2023-04-03T12:07:08;9.00;94.80
11812;DHT22;5963;50.184;9.162;2023-04-03T12:10:16;8.80;93.80
11812;DHT22;5963;50.184;9.162;2023-04-03T12:13:00;8.90;93.90
11812;DHT22;5963;50.184;9.162;2023-04-03T12:15:54;9.10;92.70
11812;DHT22;5963;50.184;9.162;2023-04-03T12:18:58;9.30;92.80
11812;DHT22;5963;50.184;9.162;2023-04-03T12:22:05;8.60;93.50
11812;DHT22;5963;50.184;9.162;2023-04-03T12:24:37;8.70;92.60
11812;DHT22;5963;50.184;9.162;2023-04-03T12:27:33;8.90;92.90
11812;DHT22;5963;50.184;9.162;2023-04-03T12:30:13;8.60;93.30
11812;DHT22;5963;50.184;9.162;2023-04-03T12:32:58;8.80;93.20
11812;DHT22;5963;50.184;9.162;2023-04-03T12:35:47;8.90;93.10
11812;DHT22;5963;50.184;9.162;2023-04-03T12:38:41;8.80;93.20
11812;DHT22;5963;50.184;9.162;2023-04-03T12:41:21;8.90;93.10
11812;DHT22;5963;50.184;9.162;2023-04-03T12:46:49;9.00;93.20
11812;DHT22;5963;50.184;9.162;2023-04-03T12:49:30;9.10;93.60
11812;DHT22;5963;50.184;9.162;2023-04-03T12:52:04;8.80;92.10
11812;DHT22;5963;50.184;9.162;2023-04-03T12:54:38;9.00;92.20
11812;DHT22;5963;50.184;9.162;2023-04-03T12:57:11;9.40;92.40
11812;DHT22;5963;50.184;9.162;2023-04-03T12:59:42;9.40;91.80
11812;DHT22;5963;50.184;9.162;2023-04-03T13:02:21;9.40;91.20
11812;DHT22;5963;50.184;9.162;2023-04-03T13:04:54;9.00;91.90
11812;DHT22;5963;50.184;9.162;2023-04-03T13:07:30;8.90;91.10
11812;DHT22;5963;50.184;9.162;2023-04-03T13:10:13;9.10;92.40
11812;DHT22;5963;50.184;9.162;2023-04-03T13:12:47;9.20;91.70
11812;DHT22;5963;50.184;9.162;2023-04-03T13:15:24;9.30;91.20
11812;DHT22;5963;50.184;9.162;2023-04-03T13:17:55;9.00;92.10
11812;DHT22;5963;50.184;9.162;2023-04-03T13:20:28;9.00;91.00
11812;DHT22;5963;50.184;9.162;2023-04-03T13:23:02;9.10;92.20
11812;DHT22;5963;50.184;9.162;2023-04-03T13:25:35;8.90;92.40
11812;DHT22;5963;50.184;9.162;2023-04-03T13:28:06;8.50;92.90
11812;DHT22;5963;50.184;9.162;2023-04-03T13:30:53;8.90;92.00
11812;DHT22;5963;50.184;9.162;2023-04-03T13:33:26;9.00;91.60
11812;DHT22;5963;50.184;9.162;2023-04-03T13:36:02;8.90;91.80
11812;DHT22;5963;50.184;9.162;2023-04-03T13:38:34;9.00;93.10
11812;DHT22;5963;50.184;9.162;2023-04-03T13:41:21;9.00;92.40
11812;DHT22;5963;50.184;9.162;2023-04-03T13:43:52;8.60;92.10
11812;DHT22;5963;50.184;9.162;2023-04-03T13:46:38;8.60;93.10
11812;DHT22;5963;50.184;9.162;2023-04-03T13:49:18;8.40;92.00
11812;DHT22;5963;50.184;9.162;2023-04-03T13:51:49;8.70;92.50
11812;DHT22;5963;50.184;9.162;2023-04-03T13:54:38;8.60;92.00
11812;DHT22;5963;50.184;9.162;2023-04-03T13:57:15;8.50;91.40
11812;DHT22;5963;50.184;9.162;2023-04-03T13:59:46;8.60;92.50
11812;DHT22;5963;50.184;9.162;2023-04-03T14:02:19;8.80;92.50
11812;DHT22;5963;50.184;9.162;2023-04-03T14:04:52;8.60;91.60
11812;DHT22;5963;50.184;9.162;2023-04-03T14:07:28;8.30;91.80
11812;DHT22;5963;50.184;9.162;2023-04-03T14:09:59;8.70;92.70
11812;DHT22;5963;50.184;9.162;2023-04-03T14:12:32;8.60;91.70
11812;DHT22;5963;50.184;9.162;2023-04-03T14:15:03;9.00;92.10
11812;DHT22;5963;50.184;9.162;2023-04-03T14:17:33;9.00;92.60
11812;DHT22;5963;50.184;9.162;2023-04-03T14:20:03;8.80;92.10
11812;DHT22;5963;50.184;9.162;2023-04-03T14:22:36;8.80;92.60
11812;DHT22;5963;50.184;9.162;2023-04-03T14:25:08;8.40;92.00
11812;DHT22;5963;50.184;9.162;2023-04-03T14:27:40;8.40;92.50
11812;DHT22;5963;50.184;9.162;2023-04-03T14:30:15;8.60;92.30
11812;DHT22;5963;50.184;9.162;2023-04-03T14:32:45;8.70;92.70
11812;DHT22;5963;50.184;9.162;2023-04-03T14:35:16;8.80;92.80
11812;DHT22;5963;50.184;9.162;2023-04-03T14:37:50;8.20;92.10
11812;DHT22;5963;50.184;9.162;2023-04-03T14:40:24;8.20;91.50
11812;DHT22;5963;50.184;9.162;2023-04-03T14:42:55;8.60;92.70
11812;DHT22;5963;50.184;9.162;2023-04-03T14:45:25;8.70;91.70
11812;DHT22;5963;50.184;9.162;2023-04-03T14:47:56;8.70;91.60
11812;DHT22;5963;50.184;9.162;2023-04-03T14:50:27;8.50;92.00
11812;DHT22;5963;50.184;9.162;2023-04-03T14:53:00;8.40;91.50
11812;DHT22;5963;50.184;9.162;2023-04-03T14:55:31;8.50;91.00
11812;DHT22;5963;50.184;9.162;2023-04-03T14:58:02;8.50;92.30
11812;DHT22;5963;50.184;9.162;2023-04-03T15:00:31;8.30;91.80
11812;DHT22;5963;50.184;9.162;2023-04-03T15:03:01;8.40;91.70
11812;DHT22;5963;50.184;9.162;2023-04-03T15:05:31;8.50;91.50
11812;DHT22;5963;50.184;9.162;2023-04-03T15:08:01;8.40;91.90
11812;DHT22;5963;50.184;9.162;2023-04-03T15:10:33;8.40;91.60
11812;DHT22;5963;50.184;9.162;2023-04-03T15:13:03;8.00;92.30
11812;DHT22;5963;50.184;9.162;2023-04-03T15:15:32;8.00;91.90
11812;DHT22;5963;50.184;9.162;2023-04-03T15:18:03;8.00;91.50
11812;DHT22;5963;50.184;9.162;2023-04-03T15:20:34;8.10;92.00
11812;DHT22;5963;50.184;9.162;2023-04-03T15:23:04;8.10;91.80
11812;DHT22;5963;50.184;9.162;2023-04-03T15:25:35;8.10;92.10
11812;DHT22;5963;50.184;9.162;2023-04-03T15:28:06;8.10;91.40
11812;DHT22;5963;50.184;9.162;2023-04-03T15:30:38;7.90;91.40
11812;DHT22;5963;50.184;9.162;2023-04-03T15:33:08;8.00;92.50
11812;DHT22;5963;50.184;9.162;2023-04-03T15:35:38;7.80;92.00
11812;DHT22;5963;50.184;9.162;2023-04-03T15:38:09;8.00;92.80
11812;DHT22;5963;50.184;9.162;2023-04-03T15:40:41;7.90;91.80
11812;DHT22;5963;50.184;9.162;2023-04-03T15:43:12;7.40;92.20
11812;DHT22;5963;50.184;9.162;2023-04-03T15:45:42;7.30;92.70
11812;DHT22;5963;50.184;9.162;2023-04-03T15:48:14;7.40;92.40
11812;DHT22;5963;50.184;9.162;2023-04-03T15:50:44;7.50;91.80
11812;DHT22;5963;50.184;9.162;2023-04-03T15:53:14;7.70;92.10
11812;DHT22;5963;50.184;9.162;2023-04-03T15:55:45;7.50;92.20
11812;DHT22;5963;50.184;9.162;2023-04-03T15:58:15;7.50;92.00
11812;DHT22;5963;50.184;9.162;2023-04-03T16:00:44;7.50;92.50
11812;DHT22;5963;50.184;9.162;2023-04-03T16:03:18;7.40;92.30
11812;DHT22;5963;50.184;9.162;2023-04-03T16:05:49;7.20;92.00
11812;DHT22;5963;50.184;9.162;2023-04-03T16:08:20;7.20;92.30
11812;DHT22;5963;50.184;9.162;2023-04-03T16:10:51;7.20;92.10
11812;DHT22;5963;50.184;9.162;2023-04-03T16:13:21;7.10;92.40
11812;DHT22;5963;50.184;9.162;2023-04-03T16:15:51;7.00;91.90
11812;DHT22;5963;50.184;9.162;2023-04-03T16:18:21;7.00;91.30
11812;DHT22;5963;50.184;9.162;2023-04-03T16:20:51;7.00;92.20
11812;DHT22;5963;50.184;9.162;2023-04-03T16:23:21;7.00;91.00
11812;DHT22;5963;50.184;9.162;2023-04-03T16:25:52;7.00;91.70
11812;DHT22;5963;50.184;9.162;2023-04-03T16:28:22;7.00;91.90
11812;DHT22;5963;50.184;9.162;2023-04-03T16:30:52;6.90;91.30
11812;DHT22;5963;50.184;9.162;2023-04-03T16:33:22;6.90;91.80
11812;DHT22;5963;50.184;9.162;2023-04-03T16:35:51;6.80;92.20
11812;DHT22;5963;50.184;9.162;2023-04-03T16:38:24;6.80;92.80
11812;DHT22;5963;50.184;9.162;2023-04-03T16:40:55;6.50;92.30
11812;DHT22;5963;50.184;9.162;2023-04-03T16:43:27;6.60;92.30
11812;DHT22;5963;50.184;9.162;2023-04-03T16:45:57;6.50;92.10
11812;DHT22;5963;50.184;9.162;2023-04-03T16:48:28;6.50;92.60